Aeroporto :
LOGIN :

Iscrizione | Disclaimer

   EN    FR    IT 

 










Sommario :    VFR   VFR Marginale   IFR   IFR Intensivo   IFR Molto Intensivo
Visibilità : 
Base nubi : 
>= 8 km
>= 3000ft
5 / 8 km
1000 / 3000 ft
1500m / 5 km
500 / 1000 ft
800 / 1500m
200 / 500 ft
< 800m
< 200 ft
Simboli :   Temporali  Nebbia  Neve Forte  Precipitazioni Forti  Vento > 20 kt
SIGMETs :   Varie  Temporali  Ghiacco  Turbolenza  Onda orograficha  Ceneri Vulcaniche






- Altitudine del aeroporto : 247 ft
- Codice IATA : BLL


EKBI - Billund

ULTIMO METAR :
  • 061120Z 27019G30KT 9999 -SHRA FEW020 SCT024CB 13/11 Q1003

METARs OBSOLETI :
  • 061050Z AUTO 26020KT 9999 BKN028/// 15/09 Q1002
  • 061020Z 26023G34KT 9999 BKN025 15/09 Q1002
  • 060950Z 26019G30KT 9999 FEW015 SCT022TCU 15/09 Q1002
  • 060920Z 26019G29KT 9999 -SHRA FEW015 SCT022CB 13/10 Q1002

TAF TAF EKBI
Valido dal 06 a 12 ore il 07 a 12 ore UTC


061101Z 0612/0712 25015KT 9999 SCT030
TEMPO 0612/0616 26018G30KT 4000 SHRA SCT012 SCT020CB
PROB40
TEMPO 0612/0616 TSRA
TEMPO 0616/0620 29018G30KT FEW020TCU
TEMPO 0620/0708 FEW020TCU
TEMPO 0708/0712 25015G25KT SHRA SCT020CB



MetMap, La meteo Aeronautica in un colpo d'occhio ! - Copyright ORBIFLY Dicembre 2007 - Disclaimer

ORBIFLY MET'MAP TEAM :

Programmazione e sviluppo : Alexandra Zaïnal
Concezione : Baudouin d'Aumeries
Aiuto per la programmazione : Marc-Olivier Méhu
Supporto tecnico e logistico : Manuel Goepfert
Aiuto per la traduzione : Arnaldo La Scala

Contatto : metmap@orbifly.com




FONTI E CREDITI :

   NOAA